Latest Weather Observations for Yamba

IDN60801

Issued at 4:43 pm EDT Thursday 12 December 2019 (issued every 10 minutes, with the page automatically refreshed every 10 minutes)

About weather observations | Map of weather stations | Latest weather observations for NSW | Other Formats
Station Details ID: 058012 Name: YAMBA PILOT STATION Lat: -29.43 Lon: 153.36 Height: 27.4 m
Data from the previous 72 hours. | See also: Recent months at Yamba
Date/Time
EDT
Temp
°C
App
Temp
°C
Dew
Point
°C
Rel
Hum
%
Delta-T
°C
Wind Press
QNH
hPa
Press
MSL
hPa
Rain since
9am
mm
Dir  Spd
km/h
Gust
km/h
Spd
kts
Gust
kts
12/04:30pm 25.6 25.3 21.9 80 2.5 SE 26 32 14 17 1009.7 1009.6 0.0
12/04:00pm 25.9 25.4 22.2 80 2.5 SE 28 33 15 18 1009.7 1009.6 0.0
12/03:30pm 25.6 25.0 21.9 80 2.5 SSE 28 35 15 19 1010.2 1010.1 0.0
12/03:00pm 25.8 25.7 22.3 81 2.4 SSE 26 35 14 19 1010.3 1010.2 0.0
12/02:30pm 24.6 23.0 21.5 83 2.1 SSE 32 43 17 23 1010.6 1010.5 0.0
12/02:00pm 24.8 23.5 21.3 81 2.3 SSE 30 41 16 22 1010.9 1010.8 0.0
12/01:30pm 25.7 24.5 21.6 78 2.7 SSE 30 44 16 24 1011.0 1010.9 0.0
12/01:00pm 24.8 23.4 21.1 80 2.4 SSE 30 39 16 21 1011.1 1011.0 0.0
12/12:30pm 24.6 23.1 20.9 80 2.4 SSE 30 39 16 21 1011.3 1011.2 0.0
12/12:00pm 24.8 23.5 21.3 81 2.3 SSE 30 37 16 20 1011.5 1011.4 0.0
12/11:30am 24.8 24.8 20.9 79 2.6 S 22 35 12 19 1011.9 1011.8 0.0
12/11:00am 24.8 24.4 20.9 79 2.6 S 24 37 13 20 1012.0 1011.9 0.0
12/10:30am 25.3 25.1 21.2 78 2.7 S 24 35 13 19 1012.0 1011.9 0.0
12/10:00am 24.1 23.3 20.8 82 2.2 S 26 41 14 22 1012.1 1012.0 0.0
12/09:30am 24.1 23.5 21.2 84 1.9 S 26 37 14 20 1011.9 1011.8 0.0
12/09:00am 24.4 24.9 21.1 82 2.2 S 20 32 11 17 1011.9 1011.8 0.6
12/08:30am 23.8 24.0 21.3 86 1.6 S 22 30 12 16 1011.6 1011.5 0.6
12/08:00am 23.2 23.7 21.1 88 1.4 S 20 32 11 17 1011.3 1011.2 0.6
12/07:30am 22.9 23.5 21.4 91 1.0 S 20 30 11 16 1011.1 1011.0 0.6
12/07:00am 22.8 22.7 21.4 92 0.9 SSE 24 32 13 17 1010.8 1010.7 0.6
12/06:30am 22.9 23.8 20.8 88 1.4 SSE 17 22 9 12 1010.5 1010.4 0.6
12/06:00am 22.2 22.9 20.5 90 1.1 SSE 17 22 9 12 1010.3 1010.2 0.6
12/05:30am 22.0 23.0 21.0 94 0.7 SSE 17 24 9 13 1009.9 1009.8 0.6
12/05:00am 21.9 24.1 20.5 92 0.9 SSE 9 11 5 6 1009.7 1009.6 0.6
12/04:30am 21.9 24.2 19.8 88 1.3 S 7 11 4 6 1009.8 1009.7 0.6
12/04:00am 21.8 23.6 19.5 87 1.5 SSE 9 13 5 7 1009.4 1009.3 0.6
12/03:30am 21.9 24.1 20.5 92 0.9 SE 9 11 5 6 1009.7 1009.6 0.6
12/03:00am 22.1 24.9 19.6 86 1.6 SSW 4 7 2 4 1009.8 1009.7 0.6
12/02:30am 22.1 24.1 20.0 88 1.3 SSW 9 11 5 6 1009.3 1009.2 0.6
12/02:00am 22.4 24.6 20.3 88 1.4 S 9 11 5 6 1009.6 1009.5 0.6
12/01:30am 22.3 24.2 20.6 90 1.1 SSW 11 17 6 9 1010.0 1009.9 0.6
12/01:00am 22.1 24.8 20.2 89 1.2 E 6 11 3 6 1010.6 1010.5 0.6
12/12:30am 22.5 24.1 21.5 94 0.7 S 15 22 8 12 1010.8 1010.7 0.6
12/12:00am 22.9 25.0 21.7 93 0.8 SSW 13 19 7 10 1011.3 1011.2 0.6
 
Date/Time
EDT
Temp
°C
App
Temp
°C
Dew
Point
°C
Rel
Hum
%
Delta-T
°C
Wind Press
QNH
hPa
Press
MSL
hPa
Rain since
9am
mm
Dir  Spd
km/h
Gust
km/h
Spd
kts
Gust
kts
11/11:30pm 22.3 23.3 19.5 84 1.8 WSW 13 26 7 14 1012.5 1012.3 0.6
11/11:00pm 22.1 22.4 20.4 90 1.1 NNW 19 26 10 14 1012.0 1011.9 0.6
11/10:30pm 22.6 24.3 21.6 94 0.7 N 15 26 8 14 1012.9 1012.7 0.4
11/10:00pm 23.1 26.2 22.1 94 0.7 N 9 20 5 11 1013.1 1012.9 0.4
11/09:30pm 23.4 24.4 21.8 91 1.1 NNW 19 26 10 14 1013.3 1013.1 0.2
11/09:00pm 23.6 26.5 21.7 89 1.3 NNW 9 19 5 10 1014.0 1013.8 0.2
11/08:30pm 23.7 26.5 21.6 88 1.4 NW 9 13 5 7 1013.4 1013.2 0.2
11/08:00pm 24.1 27.2 21.4 85 1.8 SSW 7 11 4 6 1013.6 1013.4 0.2
11/07:30pm 23.7 25.2 21.2 86 1.6 SSW 15 22 8 12 1013.8 1013.6 0.2
11/07:00pm 23.4 23.9 21.1 87 1.5 S 20 30 11 16 1012.9 1012.7 0.2
11/06:30pm 23.6 24.4 21.7 89 1.3 S 20 32 11 17 1012.7 1012.5 0.2
11/06:00pm 23.5 24.2 21.6 89 1.3 S 20 30 11 16 1011.5 1011.4 0.2
11/05:30pm 24.0 24.9 21.9 88 1.4 S 20 28 11 15 1010.9 1010.8 0.2
11/05:00pm 23.8 24.3 21.9 89 1.3 SSE 22 32 12 17 1010.4 1010.3 0.2
11/04:30pm 25.0 25.8 22.5 86 1.7 SSE 22 30 12 16 1010.6 1010.5 0.2
11/04:00pm 25.3 25.8 22.6 85 1.8 SSE 24 30 13 16 1010.5 1010.4 0.2
11/03:30pm 25.7 26.3 22.8 84 2.0 SE 24 30 13 16 1010.9 1010.8 0.2
11/03:00pm 25.6 26.4 22.5 83 2.1 SE 22 28 12 15 1011.3 1011.2 0.2
11/02:30pm 25.5 25.8 22.2 82 2.2 SSE 24 30 13 16 1011.6 1011.5 0.2
11/02:00pm 25.0 24.1 21.5 81 2.3 SSE 28 37 15 20 1011.9 1011.8 0.2
11/01:30pm 24.3 23.7 21.2 83 2.0 SSE 26 35 14 19 1012.3 1012.2 0.2
11/01:00pm 24.8 23.7 21.7 83 2.1 SSE 30 39 16 21 1012.6 1012.4 0.2
11/12:30pm 24.2 22.4 21.1 83 2.0 SSE 32 43 17 23 1012.8 1012.6 0.2
11/12:00pm 24.7 22.9 21.2 81 2.3 SSE 32 46 17 25 1012.9 1012.7 0.2
11/11:30am 25.9 25.6 21.8 78 2.7 SSE 26 35 14 19 1013.1 1012.9 0.2
11/11:00am 25.0 24.4 21.3 80 2.4 S 26 41 14 22 1013.3 1013.1 0.0
11/10:30am 25.1 23.7 21.2 79 2.6 S 30 48 16 26 1013.2 1013.0 0.0
11/10:24am 25.1 23.7 21.2 79 2.6 S 30 48 16 26 1013.2 1013.0 0.0
11/10:00am 25.6 25.5 21.5 78 2.7 S 24 39 13 21 1013.3 1013.1 0.0
11/09:30am 26.8 29.0 21.8 74 3.3 SSE 13 24 7 13 1013.5 1013.3 0.0
11/09:00am 26.4 28.4 21.6 75 3.2 S 13 20 7 11 1013.4 1013.2 0.0
11/08:30am 25.0 26.8 21.1 79 2.6 SW 13 24 7 13 1013.2 1013.0 0.0
11/08:00am 23.2 26.0 21.5 90 1.1 N 9 15 5 8 1011.8 1011.7 0.0
11/07:30am 23.5 26.3 22.3 93 0.8 NNW 11 17 6 9 1013.1 1012.9 0.0
11/07:00am 23.1 26.3 22.3 95 0.5 N 9 20 5 11 1012.7 1012.5 0.0
11/06:30am 22.9 23.9 22.1 95 0.5 ENE 20 30 11 16 1011.9 1011.8 0.0
11/06:00am 22.6 24.6 21.6 94 0.7 E 13 20 7 11 1012.3 1012.2 0.0
11/05:30am 22.9 25.9 21.9 94 0.7 ESE 9 13 5 7 1012.3 1012.2 0.0
11/05:00am 23.1 25.8 22.1 94 0.7 ESE 11 15 6 8 1012.1 1012.0 0.0
11/04:30am 22.7 24.2 21.2 91 1.0 SE 15 19 8 10 1012.6 1012.4 0.0
11/04:00am 22.9 25.4 21.0 89 1.2 ENE 9 15 5 8 1011.2 1011.1 0.0
11/03:30am 23.0 24.7 20.9 88 1.4 ENE 13 19 7 10 1010.7 1010.6 0.0
11/03:00am 23.4 24.9 21.3 88 1.4 E 15 20 8 11 1010.5 1010.4 0.0
11/02:30am 24.0 25.5 20.5 81 2.3 ENE 13 19 7 10 1010.5 1010.4 0.0
11/02:00am 24.1 27.0 21.0 83 2.0 E 7 13 4 7 1010.7 1010.6 0.0
11/01:30am 24.6 26.3 20.1 76 2.9 SSE 11 15 6 8 1010.6 1010.5 0.0
11/01:00am 25.3 26.5 19.9 72 3.5 WSW 13 17 7 9 1010.9 1010.8 0.0
11/12:30am 25.0 25.6 21.3 80 2.4 NW 20 30 11 16 1011.0 1010.9 0.0
11/12:00am 25.4 25.6 20.2 73 3.4 N 19 33 10 18 1011.0 1010.9 0.0
 
Date/Time
EDT
Temp
°C
App
Temp
°C
Dew
Point
°C
Rel
Hum
%
Delta-T
°C
Wind Press
QNH
hPa
Press
MSL
hPa
Rain since
9am
mm
Dir  Spd
km/h
Gust
km/h
Spd
kts
Gust
kts
10/11:45pm 25.0 23.0 19.1 70 3.8 NNW 28 46 15 25 1011.4 1011.3 0.0
10/11:30pm 24.8 23.2 20.1 75 3.1 N 28 43 15 23 1011.0 1010.9 0.0
10/11:00pm 25.8 26.7 20.1 71 3.7 NNE 15 28 8 15 1012.3 1012.2 0.0
10/10:30pm 23.8 25.5 21.7 88 1.4 NNE 15 26 8 14 1012.2 1012.1 0.0
10/10:00pm 23.7 27.1 22.0 90 1.1 N 7 15 4 8 1014.0 1013.8 0.0
10/09:30pm 24.3 28.0 22.2 88 1.4 N 6 9 3 5 1014.2 1014.0 0.0
10/09:00pm 24.2 27.2 21.9 87 1.5 N 9 17 5 9 1014.7 1014.5 0.0
10/08:30pm 24.1 26.4 22.0 88 1.4 NNE 13 20 7 11 1012.9 1012.7 0.0
10/08:00pm 24.1 26.5 22.2 89 1.3 NNE 13 20 7 11 1012.2 1012.1 0.0
10/07:30pm 24.3 26.4 22.4 89 1.3 NNE 15 26 8 14 1011.8 1011.7 0.0
10/07:00pm 24.4 26.5 22.5 89 1.3 NNE 15 26 8 14 1011.3 1011.2 0.0
10/06:30pm 24.7 25.7 22.2 86 1.7 NNE 20 35 11 19 1010.9 1010.8 0.0
10/06:00pm 25.4 26.5 22.3 83 2.1 NNE 20 37 11 20 1010.4 1010.3 0.0
10/05:30pm 26.0 26.9 22.7 82 2.2 NNE 22 37 12 20 1010.6 1010.5 0.0
10/05:00pm 26.3 27.4 23.0 82 2.2 NNE 22 37 12 20 1010.6 1010.5 0.0
10/04:30pm 27.3 28.5 22.5 75 3.2 NE 20 33 11 18 1010.8 1010.7 0.0
10/04:00pm 27.7 28.6 22.6 74 3.5 NE 22 35 12 19 1011.2 1011.1 0.0
10/03:30pm 28.6 29.5 22.6 70 4.1 NNE 22 35 12 19 1011.5 1011.4 0.0
10/03:00pm 29.0 30.1 23.0 70 4.1 NNE 22 33 12 18 1011.9 1011.8 0.0
10/02:30pm 29.3 30.8 23.0 69 4.3 NNE 20 35 11 19 1012.5 1012.3 0.0
10/02:00pm 29.3 30.8 23.0 69 4.3 NNE 20 28 11 15 1013.0 1012.8 0.0
10/01:30pm 29.4 31.3 23.4 70 4.1 NNE 19 28 10 15 1013.5 1013.3 0.0
10/01:00pm 29.3 31.5 23.3 70 4.1 NNE 17 28 9 15 1013.9 1013.7 0.0
10/12:30pm 28.6 30.0 22.6 70 4.1 NNE 19 28 10 15 1014.6 1014.4 0.0
10/12:00pm 27.9 29.8 22.8 74 3.5 NE 17 26 9 14 1014.9 1014.7 0.0
10/11:30am 27.4 29.6 22.6 75 3.3 NE 15 24 8 13 1015.3 1015.1 0.0
10/11:00am 27.3 29.6 22.0 73 3.6 NE 13 20 7 11 1015.8 1015.6 0.0
10/10:30am 27.2 29.9 22.2 74 3.4 NE 11 19 6 10 1016.4 1016.2 0.0
10/10:00am 27.2 30.5 22.6 76 3.1 NNE 9 17 5 9 1016.5 1016.3 0.0
10/09:30am 26.9 30.7 22.7 78 2.8 NE 7 13 4 7 1016.8 1016.6 0.0
10/09:00am 27.1 29.5 21.6 72 3.7 NNW 11 13 6 7 1017.2 1017.0 0.0
10/08:30am 25.2 28.1 21.7 81 2.3 NNW 9 13 5 7 1017.4 1017.2 0.0
10/08:00am 24.1 26.8 22.2 89 1.3 NNW 11 15 6 8 1017.6 1017.4 0.0
10/07:30am 23.6 26.9 22.6 94 0.7 NNW 9 11 5 6 1017.4 1017.2 0.0
10/07:00am 23.2 26.5 22.5 96 0.5 NNW 9 13 5 7 1017.2 1017.0 0.0
10/06:30am 22.8 26.0 22.3 97 0.3 NNW 9 11 5 6 1017.2 1017.0 0.0
10/06:00am 22.6 26.6 22.1 97 0.3 N 4 7 2 4 1017.1 1016.9 0.0
10/05:30am 22.7 26.2 22.2 97 0.3 N 7 11 4 6 1017.2 1017.0 0.0
10/05:00am 22.8 26.3 22.1 96 0.5 N 7 13 4 7 1017.1 1016.9 0.0
10/04:30am 22.9 26.0 22.1 95 0.5 N 9 13 5 7 1017.0 1016.8 0.0
10/04:00am 23.2 26.7 22.2 94 0.7 N 7 11 4 6 1017.1 1016.9 0.0
10/03:30am 23.3 26.8 22.1 93 0.8 NNE 7 11 4 6 1017.3 1017.1 0.0
10/03:00am 23.4 26.9 22.2 93 0.8 NNE 7 9 4 5 1017.5 1017.3 0.0
10/02:30am 23.3 26.8 22.1 93 0.8 NE 7 13 4 7 1017.6 1017.4 0.0
10/02:00am 23.3 26.9 22.1 93 0.8 N 6 11 3 6 1018.1 1017.9 0.0
10/01:30am 23.2 26.6 22.0 93 0.8 N 7 11 4 6 1018.5 1018.3 0.0
10/01:00am 23.3 26.6 21.9 92 0.9 NNE 7 13 4 7 1018.7 1018.5 0.0
10/12:30am 23.2 26.1 21.8 92 0.9 NNE 9 15 5 8 1018.8 1018.6 0.0
10/12:00am 23.2 25.7 21.8 92 0.9 NE 11 17 6 9 1019.2 1019.0 0.0
 
Date/Time
EDT
Temp
°C
App
Temp
°C
Dew
Point
°C
Rel
Hum
%
Delta-T
°C
Wind Press
QNH
hPa
Press
MSL
hPa
Rain since
9am
mm
Dir  Spd
km/h
Gust
km/h
Spd
kts
Gust
kts
09/11:30pm 23.2 25.8 22.0 93 0.8 NE 11 17 6 9 1019.6 1019.5 0.0
09/11:00pm 23.1 25.6 21.7 92 0.9 NE 11 19 6 10 1019.8 1019.7 0.0
09/10:30pm 23.0 25.5 21.8 93 0.8 NE 11 17 6 9 1019.9 1019.8 0.0
09/10:00pm 23.0 25.2 21.8 93 0.8 NE 13 19 7 10 1019.9 1019.8 0.0
09/09:30pm 23.0 25.0 21.6 92 0.9 NE 13 20 7 11 1019.7 1019.6 0.0
09/09:00pm 23.0 25.0 21.5 91 1.0 NE 13 19 7 10 1019.6 1019.5 0.0
09/08:30pm 23.1 25.0 21.4 90 1.1 NE 13 20 7 11 1019.4 1019.3 0.0
09/08:00pm 23.2 25.1 21.3 89 1.2 NE 13 20 7 11 1019.2 1019.0 0.0
09/07:30pm 23.3 25.1 21.2 88 1.4 NE 13 19 7 10 1019.1 1018.9 0.0
09/07:00pm 23.6 25.5 21.3 87 1.5 NE 13 22 7 12 1019.0 1018.8 0.0
09/06:30pm 24.0 25.5 21.3 85 1.8 NE 15 20 8 11 1018.7 1018.5 0.0
09/06:00pm 24.8 26.7 21.3 81 2.3 NE 13 22 7 12 1018.6 1018.4 0.0
09/05:30pm 25.2 27.2 21.5 80 2.5 ENE 13 20 7 11 1018.5 1018.3 0.0
09/05:00pm 25.8 27.8 21.5 77 2.9 ENE 13 20 7 11 1018.9 1018.7 0.0

Other formats

Comma delimited format used in spreadsheet applications
http://www.bom.gov.au/fwo/IDN60801/IDN60801.94589.axf

JavaScript Object Notation format (JSON) in row-major order
http://www.bom.gov.au/fwo/IDN60801/IDN60801.94589.json

Data quality

Most of these data are generated automatically and are frequently updated. Quality checks on data are not normally performed. It is possible for incorrect values to appear. Refer to information at About Latest Weather Observations and please check the disclaimer before using these data.